createdAt,value
2018-09-24T00:00:05.720Z,101658.83
2018-09-24T00:05:08.801Z,101673.89
2018-09-24T00:10:11.854Z,101685.20
2018-09-24T00:15:14.946Z,101702.31
2018-09-24T00:20:18.010Z,101704.43
2018-09-24T00:25:21.107Z,101725.37
2018-09-24T00:30:24.191Z,101730.23
2018-09-24T00:35:27.282Z,101743.80
2018-09-24T00:40:30.386Z,101747.97
2018-09-24T00:45:33.457Z,101749.45
2018-09-24T00:50:36.838Z,101764.93
2018-09-24T00:55:39.866Z,101771.27
2018-09-24T01:00:42.998Z,101763.99
2018-09-24T01:05:46.064Z,101771.45
2018-09-24T01:10:49.122Z,101784.97
2018-09-24T01:15:52.236Z,101802.31
2018-09-24T01:20:55.310Z,101817.94
2018-09-24T01:25:58.390Z,101822.97
2018-09-24T01:31:01.494Z,101826.77
2018-09-24T01:36:04.566Z,101826.75
2018-09-24T01:41:07.638Z,101856.55
2018-09-24T01:46:10.803Z,101863.14
2018-09-24T01:51:13.887Z,101861.38
2018-09-24T01:56:16.954Z,101867.25
2018-09-24T02:01:20.016Z,101881.11
2018-09-24T02:06:23.067Z,101886.95
2018-09-24T02:11:26.154Z,101906.06
2018-09-24T02:16:29.285Z,101899.69
2018-09-24T02:21:32.325Z,101908.72
2018-09-24T02:26:35.371Z,101915.94
2018-09-24T02:31:39.684Z,101931.92
2018-09-24T02:36:42.739Z,101942.59
2018-09-24T02:41:46.678Z,101949.20
2018-09-24T02:46:49.714Z,101971.75
2018-09-24T02:51:52.947Z,101966.80
2018-09-24T02:56:56.019Z,101977.12
2018-09-24T03:01:59.118Z,101986.38
2018-09-24T03:17:55.289Z,102004.34
2018-09-24T03:22:58.626Z,102015.30
2018-09-24T03:28:02.109Z,102016.63
2018-09-24T03:33:05.547Z,102024.94
2018-09-24T03:38:08.880Z,102031.92
2018-09-24T03:43:11.899Z,102034.58
2018-09-24T03:48:16.147Z,102046.76
2018-09-24T03:53:20.209Z,102046.31
2018-09-24T03:58:24.183Z,102053.35
2018-09-24T04:03:28.223Z,102062.50
2018-09-24T04:08:37.523Z,102063.84
2018-09-24T04:13:46.994Z,102082.55
2018-09-24T04:18:56.589Z,102072.46
2018-09-24T04:24:05.971Z,102087.67
2018-09-24T04:29:14.728Z,102091.20
2018-09-24T04:34:23.305Z,102088.59
2018-09-24T04:39:32.032Z,102091.66
2018-09-24T04:44:40.739Z,102103.02
2018-09-24T04:49:49.479Z,102096.11
2018-09-24T04:54:58.261Z,102112.30
2018-09-24T05:00:07.074Z,102126.66
2018-09-24T05:05:15.733Z,102123.62
2018-09-24T05:10:24.511Z,102132.78
2018-09-24T05:15:33.228Z,102143.72
2018-09-24T05:20:41.860Z,102144.63
2018-09-24T05:25:50.538Z,102139.36
2018-09-24T05:30:59.314Z,102161.55
2018-09-24T05:36:08.307Z,102172.48
2018-09-24T05:41:17.186Z,102172.48
2018-09-24T05:46:25.843Z,102177.26
2018-09-24T05:51:34.612Z,102184.66
2018-09-24T05:56:43.099Z,102199.33
2018-09-24T06:01:51.810Z,102206.05
2018-09-24T06:07:00.616Z,102211.27
2018-09-24T06:12:09.252Z,102231.39
2018-09-24T06:17:18.101Z,102231.80
2018-09-24T06:22:26.919Z,102243.56
2018-09-24T06:27:35.782Z,102250.73
2018-09-24T06:32:44.413Z,102263.27
2018-09-24T06:37:53.066Z,102265.92
2018-09-24T06:43:01.756Z,102260.14
2018-09-24T06:48:10.659Z,102270.61
2018-09-24T06:53:19.323Z,102275.34
2018-09-24T06:58:27.989Z,102279.27
2018-09-24T07:03:36.708Z,102296.62
2018-09-24T07:08:45.366Z,102302.20
2018-09-24T07:13:54.097Z,102311.16
2018-09-24T07:19:02.764Z,102330.25
2018-09-24T07:24:11.735Z,102331.77
2018-09-24T07:29:20.450Z,102339.03
2018-09-24T07:34:29.132Z,102335.89
2018-09-24T07:39:37.638Z,102347.45
2018-09-24T07:44:46.366Z,102362.99
2018-09-24T07:49:55.196Z,102374.21
2018-09-24T07:55:03.978Z,102392.45
2018-09-24T08:00:12.821Z,102388.03
2018-09-24T08:05:22.951Z,102397.26
2018-09-24T08:10:31.672Z,102405.23
2018-09-24T08:15:40.336Z,102410.75
2018-09-24T08:20:49.103Z,102414.88
2018-09-24T08:25:57.778Z,102419.77
2018-09-24T08:31:06.691Z,102438.78
2018-09-24T08:36:15.538Z,102443.88
2018-09-24T08:41:24.231Z,102450.67
2018-09-24T08:46:33.290Z,102461.58
2018-09-24T08:51:42.054Z,102473.80
2018-09-24T08:56:50.985Z,102477.14
2018-09-24T09:01:59.739Z,102478.26
2018-09-24T09:07:08.400Z,102474.89
2018-09-24T09:12:17.102Z,102470.56
2018-09-24T09:17:25.863Z,102474.97
2018-09-24T09:22:34.467Z,102470.81
2018-09-24T09:27:43.093Z,102481.48
2018-09-24T09:32:51.759Z,102485.16
2018-09-24T09:38:00.424Z,102480.59
2018-09-24T09:43:09.126Z,102491.83
2018-09-24T09:48:17.828Z,102492.91
2018-09-24T09:53:26.604Z,102497.20
2018-09-24T09:58:35.455Z,102489.62
2018-09-24T10:03:44.349Z,102481.59
2018-09-24T10:08:53.046Z,102505.03
2018-09-24T10:14:02.664Z,102515.63
2018-09-24T10:19:12.288Z,102508.82
2018-09-24T10:24:21.762Z,102503.83
2018-09-24T10:29:31.147Z,102499.48
2018-09-24T10:34:40.282Z,102520.90
2018-09-24T10:39:49.405Z,102514.81
2018-09-24T10:44:58.696Z,102513.17
2018-09-24T10:50:08.063Z,102529.20
2018-09-24T10:55:17.323Z,102511.80
2018-09-24T11:00:26.724Z,102514.12
2018-09-24T11:05:36.183Z,102511.23
2018-09-24T11:10:46.066Z,102504.45
2018-09-24T11:15:55.364Z,102501.95
2018-09-24T11:21:04.774Z,102506.43
2018-09-24T11:31:22.979Z,102498.38
2018-09-24T11:36:31.743Z,102494.48
2018-09-24T11:41:40.351Z,102500.45
2018-09-24T11:46:49.164Z,102494.36
2018-09-24T11:51:57.913Z,102506.08
2018-09-24T11:57:06.699Z,102540.17
2018-09-24T12:02:15.572Z,102588.21
2018-09-24T12:07:24.355Z,102585.41
2018-09-24T12:12:33.028Z,102585.85
2018-09-24T12:17:41.743Z,102589.36
2018-09-24T12:22:50.518Z,102576.09
2018-09-24T12:27:59.195Z,102594.32
2018-09-24T12:33:07.932Z,102576.67
2018-09-24T12:38:16.623Z,102574.16
2018-09-24T12:43:25.191Z,102581.42
2018-09-24T12:48:33.897Z,102585.48
2018-09-24T12:53:42.787Z,102588.64
2018-09-24T12:58:51.604Z,102582.58
2018-09-24T13:04:00.153Z,102579.23
2018-09-24T13:09:09.029Z,102586.17
2018-09-24T13:14:17.802Z,102591.05
2018-09-24T13:19:26.405Z,102588.30
2018-09-24T13:24:35.129Z,102584.85
2018-09-24T13:29:43.964Z,102597.05
2018-09-24T13:34:52.824Z,102595.73
2018-09-24T13:40:01.737Z,102593.97
2018-09-24T13:45:10.409Z,102597.45
2018-09-24T13:50:19.232Z,102616.19
2018-09-24T13:55:27.959Z,102610.97
2018-09-24T14:00:36.693Z,102612.98
2018-09-24T14:05:45.428Z,102610.28
2018-09-24T14:10:54.219Z,102599.52
2018-09-24T14:16:02.942Z,102609.30
2018-09-24T14:21:11.780Z,102601.45
2018-09-24T14:26:20.656Z,102595.28
2018-09-24T14:31:29.420Z,102599.30
2018-09-24T14:36:38.349Z,102631.06
2018-09-24T14:41:47.893Z,102632.00
2018-09-24T14:46:56.835Z,102635.93
2018-09-24T14:52:05.611Z,102637.58
2018-09-24T14:57:14.399Z,102642.69
2018-09-24T15:02:23.307Z,102651.23
2018-09-24T15:07:31.911Z,102654.41
2018-09-24T15:12:40.662Z,102656.94
2018-09-24T15:17:49.414Z,102651.19
2018-09-24T15:22:58.142Z,102654.45
2018-09-24T15:28:07.006Z,102644.38
2018-09-24T15:33:15.610Z,102638.47
2018-09-24T15:38:24.317Z,102649.95
2018-09-24T15:43:33.179Z,102659.47
2018-09-24T15:48:41.764Z,102654.47
2018-09-24T15:53:50.661Z,102663.53
2018-09-24T15:58:59.371Z,102663.49
2018-09-24T16:04:07.887Z,102663.05
2018-09-24T16:09:16.778Z,102666.65
2018-09-24T16:14:25.557Z,102668.73
2018-09-24T16:19:34.178Z,102665.50
2018-09-24T16:24:43.314Z,102675.17
2018-09-24T16:29:52.059Z,102671.94
2018-09-24T16:35:00.878Z,102675.41
2018-09-24T16:40:09.987Z,102682.34
2018-09-24T16:45:18.759Z,102728.25
2018-09-24T16:50:27.483Z,102757.23
2018-09-24T16:55:36.111Z,102743.17
2018-09-24T17:00:44.784Z,102736.83
2018-09-24T17:05:53.382Z,102740.74
2018-09-24T17:11:02.178Z,102740.19
2018-09-24T17:16:11.042Z,102742.23
2018-09-24T17:21:19.643Z,102753.05
2018-09-24T17:26:28.285Z,102800.19
2018-09-24T17:31:37.018Z,102770.40
2018-09-24T17:36:45.784Z,102762.97
2018-09-24T17:41:54.738Z,102775.14
2018-09-24T17:47:03.955Z,102785.56
2018-09-24T17:52:12.899Z,102783.33
2018-09-24T17:57:22.721Z,102795.59
2018-09-24T18:02:31.931Z,102802.59
2018-09-24T18:07:40.864Z,102811.34
2018-09-24T18:12:50.406Z,102821.44
2018-09-24T18:17:59.218Z,102827.98
2018-09-24T18:23:07.894Z,102829.73
2018-09-24T18:28:16.774Z,102814.50
2018-09-24T18:33:25.424Z,102845.52
2018-09-24T18:38:33.947Z,102858.19
2018-09-24T18:43:42.481Z,102858.61
2018-09-24T18:48:51.081Z,102855.11
2018-09-24T18:53:59.864Z,102865.17
2018-09-24T18:59:15.478Z,102866.05
2018-09-24T19:04:24.172Z,102870.86
2018-09-24T19:09:32.731Z,102881.34
2018-09-24T19:14:41.433Z,102885.71
2018-09-24T19:19:50.045Z,102887.03
2018-09-24T19:24:58.574Z,102890.09
2018-09-24T19:30:07.254Z,102893.59
2018-09-24T19:35:16.074Z,102899.25
2018-09-24T19:40:24.864Z,102900.58
2018-09-24T19:45:33.583Z,102907.96
2018-09-24T19:50:42.135Z,102911.47
2018-09-24T19:55:50.846Z,102919.33
2018-09-24T20:00:59.511Z,102927.16
2018-09-24T20:06:08.686Z,102931.52
2018-09-24T20:11:17.301Z,102933.27
2018-09-24T20:16:25.905Z,102938.08
2018-09-24T20:21:34.701Z,102935.89
2018-09-24T20:26:43.470Z,102933.27
2018-09-24T20:31:52.155Z,102940.67
2018-09-24T20:37:00.925Z,102946.34
2018-09-24T20:42:09.684Z,102957.27
2018-09-24T20:47:18.431Z,102964.23
2018-09-24T20:52:27.074Z,102973.41
2018-09-24T20:57:35.822Z,102982.11
2018-09-24T21:02:44.447Z,102997.35
2018-09-24T21:07:53.142Z,103009.55
2018-09-24T21:13:01.902Z,103011.70
2018-09-24T21:18:10.706Z,103023.06
2018-09-24T21:23:19.306Z,103033.11
2018-09-24T21:28:28.118Z,103045.31
2018-09-24T21:33:36.806Z,103050.11
2018-09-24T21:38:45.658Z,103053.58
2018-09-24T21:43:54.441Z,103057.48
2018-09-24T21:49:03.003Z,103056.59
2018-09-24T21:54:11.699Z,103053.98
2018-09-24T21:59:20.539Z,103052.68
2018-09-24T22:04:29.246Z,103064.46
2018-09-24T22:09:37.915Z,103065.77
2018-09-24T22:14:46.682Z,103066.23
2018-09-24T22:19:55.411Z,103081.45
2018-09-24T22:25:04.097Z,103087.98
2018-09-24T22:30:13.031Z,103084.03
2018-09-24T22:35:21.562Z,103096.25
2018-09-24T22:40:30.137Z,103087.50
2018-09-24T22:45:38.799Z,103093.56
2018-09-24T22:50:47.542Z,103091.77
2018-09-24T22:55:56.099Z,103093.01
2018-09-24T23:01:04.913Z,103099.04
2018-09-24T23:06:13.563Z,103098.94
2018-09-24T23:11:22.250Z,103107.16
2018-09-24T23:16:31.125Z,103115.39
2018-09-24T23:21:39.790Z,103117.11
2018-09-24T23:26:48.434Z,103117.07
2018-09-24T23:31:57.005Z,103123.14
2018-09-24T23:37:05.731Z,103126.20
2018-09-24T23:42:14.470Z,103133.13
2018-09-24T23:47:23.071Z,103134.36
2018-09-24T23:52:31.805Z,103136.97
2018-09-24T23:57:40.566Z,103138.88
